EPKT/KTW METAR and TAF weather

Enter ICAO airport designator
Station Type Date Time Source
EPKT METAR 2021/05/07 01:30 UTC NOAA

EPKT 070130Z 13005KT 9999 -RA SCT028 OVC035 07/05 Q1004 RERA


Station Type Date Time Source
EPKT Decoded METAR 2021/05/07 01:30 UTC NOAA

Katowice, Poland (EPKT) 50-14N 019-02E 284M
May 06, 2021 - 09:30 PM EDT / 2021.05.07 0130 UTC
Wind: from the SE (130 degrees) at 6 MPH (5 KT):0
Visibility: greater than 7 mile(s):0
Sky conditions: overcast
Weather: light rain
Temperature: 44 F (7 C)
Dew Point: 41 F (5 C)
Relative Humidity: 87%
Pressure (altimeter): 29.65 in. Hg (1004 hPa)
ob: EPKT 070130Z 13005KT 9999 -RA SCT028 OVC035 07/05 Q1004 RERA
cycle: 1

Station Type Date Time Source
EPKT TAF 2021/05/06 18:33 UTC NOAA

TAF EPKT 061730Z 0618/0718 20011KT CAVOK PROB40
TEMPO 0618/0619 SCT030CB
BECMG 0622/0701 BKN014
TEMPO 0700/0706 4000 RA BR BKN009 PROB40
TEMPO 0700/0706 BKN004
BECMG 0706/0708 26010KT BKN030
TEMPO 0706/0709 25015G25KT
BECMG 0709/0711 32015KT
TEMPO 0709/0718 30025G35KT 4000 SHRA BKN020CB

Example: see airport list